Time,TemperatureF,DewpointF,PressureIn,WindDirection,WindDirectionDegrees,WindSpeedMPH,WindSpeedGustMPH,Humidity,HourlyPrecipIn,Conditions,Clouds,dailyrainin,SoftwareType,DateUTC
2013-05-26 00:52:00,43.0,24.0,29.75,ESE,104,0.0,0.0,47,-99.99,,,-99.99,,2013-05-26 06:52:00,
2013-05-26 01:21:00,41.0,24.0,29.75,NNW,335,0.0,0.0,50,-99.99,,,-99.99,,2013-05-26 07:21:00,
2013-05-26 01:31:00,41.0,25.0,29.76,WSW,255,0.0,0.0,52,-99.99,,,-99.99,,2013-05-26 07:31:00,
2013-05-26 01:52:00,40.0,26.0,29.77,SE,136,2.0,0.0,56,-99.99,,,-99.99,,2013-05-26 07:52:00,
2013-05-26 02:01:00,39.0,25.0,29.78,ESE,110,1.0,0.0,57,-99.99,,,-99.99,,2013-05-26 08:01:00,
2013-05-26 02:21:00,40.0,25.0,29.77,East,101,2.0,0.0,55,-99.99,,,-99.99,,2013-05-26 08:21:00,
2013-05-26 02:53:00,39.0,24.0,29.78,East,95,0.0,0.0,55,-99.99,,,-99.99,,2013-05-26 08:53:00,
2013-05-26 03:01:00,38.0,23.0,29.78,SE,136,0.0,0.0,55,-99.99,,,-99.99,,2013-05-26 09:01:00,
2013-05-26 03:11:00,36.0,25.0,29.78,East,88,2.0,0.0,64,-99.99,,,-99.99,,2013-05-26 09:11:00,
2013-05-26 03:33:00,35.0,25.0,29.78,SE,142,1.0,0.0,66,-99.99,,,-99.99,,2013-05-26 09:33:00,
2013-05-26 03:53:00,34.0,24.0,29.78,ESE,103,1.0,0.0,67,-99.99,,,-99.99,,2013-05-26 09:53:00,
2013-05-26 04:02:00,34.0,24.0,29.79,SSW,194,1.0,0.0,67,-99.99,,,-99.99,,2013-05-26 10:02:00,
2013-05-26 04:22:00,34.0,25.0,29.79,NNE,12,0.0,0.0,68,-99.99,,,-99.99,,2013-05-26 10:22:00,
2013-05-26 04:32:00,34.0,25.0,29.78,ESE,108,3.0,0.0,70,-99.99,,,-99.99,,2013-05-26 10:32:00,
2013-05-26 04:52:00,36.0,26.0,29.78,SW,219,0.0,0.0,67,-99.99,,,-99.99,,2013-05-26 10:52:00,
2013-05-26 05:02:00,35.0,27.0,29.79,ESE,104,3.0,0.0,71,-99.99,,,-99.99,,2013-05-26 11:02:00,
2013-05-26 05:22:00,34.0,27.0,29.78,East,89,0.0,0.0,74,-99.99,,,-99.99,,2013-05-26 11:22:00,
2013-05-26 05:52:00,34.0,26.0,29.79,ESE,115,0.0,0.0,73,-99.99,,,-99.99,,2013-05-26 11:52:00,
2013-05-26 06:21:00,34.0,26.0,29.80,SSE,159,0.0,0.0,73,-99.99,,,-99.99,,2013-05-26 12:21:00,
2013-05-26 06:31:00,34.0,26.0,29.80,NNW,328,2.0,0.0,73,-99.99,,,-99.99,,2013-05-26 12:31:00,
2013-05-26 06:52:00,35.0,27.0,29.81,SSW,210,2.0,0.0,72,-99.99,,,-99.99,,2013-05-26 12:52:00,
2013-05-26 07:02:00,36.0,28.0,29.80,ESE,110,2.0,0.0,73,-99.99,,,-99.99,,2013-05-26 13:02:00,
2013-05-26 07:21:00,37.0,28.0,29.81,SSW,208,0.0,0.0,69,-99.99,,,-99.99,,2013-05-26 13:21:00,
2013-05-26 08:21:00,54.0,26.0,29.79,West,278,1.0,0.0,33,-99.99,,,-99.99,,2013-05-26 14:21:00,
2013-05-26 08:31:00,57.0,25.0,29.78,West,278,0.0,0.0,29,-99.99,,,-99.99,,2013-05-26 14:31:00,
2013-05-26 08:42:00,57.0,25.0,29.78,West,278,0.0,0.0,29,-99.99,,,-99.99,,2013-05-26 14:42:00,
2013-05-26 08:52:00,59.0,26.0,29.78,East,100,1.0,0.0,28,-99.99,,,-99.99,,2013-05-26 14:52:00,
2013-05-26 09:01:00,61.0,27.0,29.78,ESE,103,0.0,0.0,27,-99.99,,,-99.99,,2013-05-26 15:01:00,
2013-05-26 09:11:00,61.0,27.0,29.78,ESE,103,0.0,0.0,27,-99.99,,,-99.99,,2013-05-26 15:11:00,
2013-05-26 09:22:00,63.0,25.0,29.77,SW,226,0.0,0.0,23,-99.99,,,-99.99,,2013-05-26 15:22:00,
2013-05-26 09:33:00,63.0,25.0,29.77,SW,226,0.0,0.0,23,-99.99,,,-99.99,,2013-05-26 15:33:00,
2013-05-26 09:43:00,63.0,25.0,29.77,SW,226,0.0,0.0,23,-99.99,,,-99.99,,2013-05-26 15:43:00,
2013-05-26 09:53:00,66.0,27.0,29.75,ENE,72,1.0,0.0,23,-99.99,,,-99.99,,2013-05-26 15:53:00,
2013-05-26 10:03:00,66.0,27.0,29.75,ENE,72,1.0,0.0,23,-99.99,,,-99.99,,2013-05-26 16:03:00,
2013-05-26 10:12:00,66.0,27.0,29.75,ENE,72,1.0,0.0,23,-99.99,,,-99.99,,2013-05-26 16:12:00,
2013-05-26 10:23:00,68.0,19.0,29.75,East,101,1.0,0.0,15,-99.99,,,-99.99,,2013-05-26 16:23:00,
2013-05-26 10:33:00,68.0,19.0,29.75,East,101,1.0,0.0,15,-99.99,,,-99.99,,2013-05-26 16:33:00,
2013-05-26 10:42:00,68.0,19.0,29.75,East,101,1.0,0.0,15,-99.99,,,-99.99,,2013-05-26 16:42:00,
2013-05-26 10:52:00,72.0,23.0,29.73,NE,54,1.0,0.0,16,-99.99,,,-99.99,,2013-05-26 16:52:00,
2013-05-26 11:02:00,73.0,21.0,29.72,North,354,3.0,0.0,14,-99.99,,,-99.99,,2013-05-26 17:02:00,
2013-05-26 11:11:00,73.0,21.0,29.72,North,354,3.0,0.0,14,-99.99,,,-99.99,,2013-05-26 17:11:00,
2013-05-26 11:22:00,72.0,20.0,29.71,NNW,335,3.0,0.0,14,-99.99,,,-99.99,,2013-05-26 17:22:00,
2013-05-26 11:32:00,73.0,19.0,29.70,NE,43,1.0,0.0,13,-99.99,,,-99.99,,2013-05-26 17:32:00,
2013-05-26 11:42:00,73.0,19.0,29.70,NE,43,1.0,0.0,13,-99.99,,,-99.99,,2013-05-26 17:42:00,
2013-05-26 11:52:00,73.0,19.0,29.70,NE,43,1.0,0.0,13,-99.99,,,-99.99,,2013-05-26 17:52:00,
2013-05-26 12:01:00,74.0,20.0,29.70,WSW,246,3.0,0.0,13,-99.99,,,-99.99,,2013-05-26 18:01:00,
2013-05-26 12:11:00,74.0,20.0,29.70,WSW,246,3.0,0.0,13,-99.99,,,-99.99,,2013-05-26 18:11:00,
2013-05-26 12:21:00,76.0,23.0,29.69,SW,215,4.0,0.0,14,-99.99,,,-99.99,,2013-05-26 18:21:00,
2013-05-26 12:31:00,76.0,23.0,29.69,SW,215,4.0,0.0,14,-99.99,,,-99.99,,2013-05-26 18:31:00,
2013-05-26 12:41:00,76.0,23.0,29.69,SW,215,4.0,0.0,14,-99.99,,,-99.99,,2013-05-26 18:41:00,
2013-05-26 12:52:00,74.0,23.0,29.68,NW,305,1.0,0.0,15,-99.99,,,-99.99,,2013-05-26 18:52:00,
2013-05-26 13:01:00,74.0,23.0,29.68,NW,305,1.0,0.0,15,-99.99,,,-99.99,,2013-05-26 19:01:00,
2013-05-26 13:11:00,74.0,23.0,29.68,NW,305,1.0,0.0,15,-99.99,,,-99.99,,2013-05-26 19:11:00,
2013-05-26 13:21:00,78.0,27.0,29.67,WSW,254,4.0,16.0,15,-99.99,,,-99.99,,2013-05-26 19:21:00,
2013-05-26 13:31:00,78.0,23.0,29.67,WNW,297,4.0,13.0,13,-99.99,,,-99.99,,2013-05-26 19:31:00,
2013-05-26 13:42:00,78.0,23.0,29.67,WNW,297,4.0,13.0,13,-99.99,,,-99.99,,2013-05-26 19:42:00,
2013-05-26 13:52:00,78.0,27.0,29.67,SW,229,2.0,14.0,15,-99.99,,,-99.99,,2013-05-26 19:52:00,
2013-05-26 14:01:00,78.0,21.0,29.66,WNW,298,4.0,0.0,12,-99.99,,,-99.99,,2013-05-26 20:01:00,
2013-05-26 14:11:00,78.0,21.0,29.66,WNW,298,4.0,0.0,12,-99.99,,,-99.99,,2013-05-26 20:11:00,
2013-05-26 14:21:00,78.0,25.0,29.66,SW,236,5.0,0.0,14,-99.99,,,-99.99,,2013-05-26 20:21:00,
2013-05-26 14:32:00,78.0,25.0,29.66,SW,236,5.0,0.0,14,-99.99,,,-99.99,,2013-05-26 20:32:00,
2013-05-26 14:41:00,78.0,25.0,29.66,SW,236,5.0,0.0,14,-99.99,,,-99.99,,2013-05-26 20:41:00,
2013-05-26 14:52:00,78.0,25.0,29.66,SW,236,5.0,0.0,14,-99.99,,,-99.99,,2013-05-26 20:52:00,
2013-05-26 15:01:00,78.0,23.0,29.65,WNW,298,4.0,0.0,13,-99.99,,,-99.99,,2013-05-26 21:01:00,
2013-05-26 15:11:00,78.0,23.0,29.65,WNW,298,4.0,0.0,13,-99.99,,,-99.99,,2013-05-26 21:11:00,
2013-05-26 15:22:00,79.0,22.0,29.64,NW,304,6.0,0.0,12,-99.99,,,-99.99,,2013-05-26 21:22:00,
2013-05-26 15:33:00,79.0,22.0,29.64,NW,304,6.0,0.0,12,-99.99,,,-99.99,,2013-05-26 21:33:00,
2013-05-26 15:43:00,79.0,22.0,29.64,NW,304,6.0,0.0,12,-99.99,,,-99.99,,2013-05-26 21:43:00,
2013-05-26 15:53:00,79.0,22.0,29.64,NW,304,6.0,0.0,12,-99.99,,,-99.99,,2013-05-26 21:53:00,
2013-05-26 16:02:00,79.0,22.0,29.64,NW,304,6.0,0.0,12,-99.99,,,-99.99,,2013-05-26 22:02:00,